Report METAR

 

LIML - Milano/Linate, Italy
Distance from station: NO 27km
Dati ricevuti: 16/02/2020 19:50
Parz. nuvoloso
Parz. nuvoloso
 Vento da Variabile
Vento: Variabile 2 km/h
Temperatura: 10°C
P.to Rugiada: 6°C
Umidità: 76%
Barometro: 1028 hPa
Nuvole: Parz. nuvoloso
Visibility: 10 km
Cloud details: Few Clouds 914 m
Parz. nuvoloso 1524 m
2020/02/16 18:50 LIML 161850Z VRB01KT 9999 FEW030 SCT050 10/06 Q1028 NOSIG
LIME - Bergamo/Orio Ser, Italy
Distance from station: NNE 43km
Dati ricevuti: 16/02/2020 19:50
Mist, Parz. nuvoloso
Mist, Parz. nuvoloso
 Vento da N
Vento: N 7 km/h
Temperatura: 8°C
Temperatura Vento: 7°C
P.to Rugiada: 4°C
Umidità: 76%
Barometro: 1028 hPa
Summary: Mist
Nuvole: Parz. nuvoloso
Visibility: 5 km
2020/02/16 18:50 LIME 161850Z 36004KT 5000 BR NSC 08/04 Q1028 NOSIG
 
LIMS - Piacenza, it-Afb, Italy
Distance from station: SSE 45km
Dati ricevuti: 16/02/2020 18:55
DATI Obsoleti
Mist, Nuvoloso
Mist, Nuvoloso
 Vento da S
Vento: S 2 km/h
Temperatura: 10°C
P.to Rugiada: 7°C
Umidità: 82%
Barometro: 1027 hPa
Summary: Mist
Nuvole: Molto nuvoloso
Visibility: 4 km
Cloud details: Parz. nuvoloso 1219 m
Molto nuvoloso 1524 m
2020/02/16 17:55 LIMS 161755Z 18001KT 4000 BR SCT040 BKN050 10/07 Q1027
LIPO - Brescia/Montichi, Italy
Distance from station: ENE 65km
Dati ricevuti: 16/02/2020 19:50
Mist, Parz. nuvoloso
Mist, Parz. nuvoloso
 Vento da Variabile
Vento: Variabile 2 km/h
Temperatura: 9°C
P.to Rugiada: 6°C
Umidità: 82%
Barometro: 1028 hPa
Summary: Mist
Nuvole: Parz. nuvoloso
Visibility: 5 km
2020/02/16 18:50 LIPO 161850Z VRB01KT 5000 BR NSC 09/06 Q1028